NowCast ZoneCast Warnings/Advisories Hourly Track Special Radar
Punta Gorda, Charlotte County Airport, United States  Lat: 26.92N, Lon: 81.99W
ICAO Used: KPGD
Current Conditions
Updated: 6:53 PM EST SUN MAR 1 2015
Sun & Moon Information:
Mostly Cloudy
Mostly Cloudy
Temp: 74°F
Humidity: 85%
Wind Speed: S6.9MPH(6KT)
Barometer: 30.27 in.
Dewpoint: 69°F
Heat Index: 74°F
Wind Chill: 74°F
Civil Twilight: 6:28 AM EST Moon Phase:
Waxing Gibbous Moon
Waxing Gibbous Moon
Sunrise: 6:51 AM EST
Sunset: 6:28 PM EST
Civil Twilight: 6:51 PM EST
Forecast for Punta Gorda, Charlotte County Airport, FL, United States:
(Forecast based on TAF for )
0300 AM EST MON MAR 02 2015
  
OVERNIGHT MORNING AFTERNOON EVENING OVERNIGHT
Mist Mist Partly Cloudy Partly Cloudy Partly Cloudy
Mist Mist Partly
Cloudy
Partly
Cloudy
Partly
Cloudy
TAF based forecast:
Dated: 0300 AM EST MON MAR 02 2015
Overnight...Changing to mist and partly cloudy skies winds variable in direction at 5 mph.
Morning...Partly cloudy and mist winds variable in direction at 5 mph. Turning partly cloudy with winds from the east at 7 mph.
Afternoon...Partly cloudy with winds from the east at 7 mph.
Evening...Partly cloudy with winds from the east at 7 mph.
Overnight...Partly cloudy with winds from the east at 7 mph.
Original Encoded TAF:
Dated: 0300 AM EST MON MAR 02 2015
KPGD 012340Z 0200/0224 VRB05KT P6SM SCT045 BKN090 
     FM020800 VRB04KT 3SM BR SCT005 
     FM021500 08006KT P6SM SCT030 SCT250